Terminal Aerodrome Forecast
Issued by NWS

Home | Current Version | Previous Version | Text Only | Print | Product List | Glossary On
Versions: 1 2 3 4 5 6 7 8 9 10 11 12 13 14 15 16 17 18 19 20 21 22 23
000
FTUS45 KBOU 171137
TAFBJC
TAF
KBJC 171137Z 1712/1812 10004KT P6SM OVC008
      TEMPO 1712/1715 3SM -FZDZ BR OVC005
     FM171500 10005KT P6SM BKN008 OVC012
     FM171900 09005KT P6SM SCT014 BKN150
     FM172200 07006KT P6SM SCT150 BKN220
     FM180100 18007KT P6SM FEW220=

USA.gov is the U.S. government's official web portal to all federal, state and local government web resources and services.